Time;durP1;ratioP1;P1;durP2;ratioP2;P2;SDS_P1;SDS_P2;PMS_P1;PMS_P2;Temp;Humidity;BMP_temperature;BMP_pressure;BME280_temperature;BME280_humidity;BME280_pressure;Samples;Min_cycle;Max_cycle;Signal;HPM_P1;HPM_P2
2023/10/17 00:00:58;;;;;;;0.47;0.40;;;8.00;90.50;;;;;;4796442;29;20054;-76
2023/10/17 00:03:24;;;;;;;1.17;0.40;;;7.90;90.40;;;;;;4829351;29;20034;-77
2023/10/17 00:05:51;;;;;;;0.30;0.30;;;8.00;90.40;;;;;;4829837;29;20045;-77
2023/10/17 00:08:17;;;;;;;0.43;0.40;;;8.10;90.40;;;;;;4813620;29;20076;-76
2023/10/17 00:10:45;;;;;;;0.38;0.38;;;8.00;90.70;;;;;;4829685;29;20031;-77
2023/10/17 00:15:51;;;;;;;0.47;0.30;;;8.00;90.40;;;;;;4828156;29;20060;-76
2023/10/17 00:18:24;;;;;;;0.35;0.35;;;8.00;90.40;;;;;;4811166;29;20075;-76
2023/10/17 00:20:52;;;;;;;0.73;0.32;;;8.00;90.40;;;;;;4812127;29;20042;-76
2023/10/17 00:23:20;;;;;;;0.40;0.40;;;8.00;90.40;;;;;;4827851;29;20081;-77
2023/10/17 00:25:49;;;;;;;0.40;0.30;;;8.00;90.40;;;;;;4827566;29;20039;-76
2023/10/17 00:28:20;;;;;;;0.35;0.35;;;8.00;90.40;;;;;;4827444;29;20130;-77
2023/10/17 00:30:48;;;;;;;0.68;0.40;;;8.00;90.40;;;;;;4810995;29;20034;-76
2023/10/17 00:33:20;;;;;;;0.35;0.28;;;8.00;90.40;;;;;;4810824;29;20046;-77
2023/10/17 00:35:47;;;;;;;0.50;0.40;;;8.10;90.40;;;;;;4812025;29;20050;-76
2023/10/17 00:38:15;;;;;;;0.40;0.40;;;8.10;90.60;;;;;;4827480;29;20046;-77
2023/10/17 00:43:19;;;;;;;0.38;0.30;;;8.10;90.40;;;;;;4827672;29;20425;-76
2023/10/17 00:45:47;;;;;;;0.65;0.35;;;8.00;90.30;;;;;;4810775;29;20054;-76
2023/10/17 00:48:18;;;;;;;0.55;0.38;;;8.10;90.30;;;;;;4811149;29;20099;-76
2023/10/17 00:50:46;;;;;;;0.40;0.38;;;8.10;90.30;;;;;;4817504;29;20034;-76
2023/10/17 00:53:13;;;;;;;0.80;0.30;;;8.10;90.30;;;;;;4817084;29;20046;-77
2023/10/17 00:55:40;;;;;;;0.30;0.22;;;8.00;90.30;;;;;;4801725;29;20069;-77
2023/10/17 00:58:06;;;;;;;0.30;0.30;;;8.10;90.40;;;;;;4832873;29;20042;-77
2023/10/17 01:00:36;;;;;;;0.45;0.40;;;8.10;90.40;;;;;;4832447;29;20038;-77
2023/10/17 01:03:13;;;;;;;0.90;0.60;;;8.10;90.40;;;;;;4817567;29;20051;-77
2023/10/17 01:05:42;;;;;;;0.20;0.20;;;8.10;90.40;;;;;;4818571;29;20106;-77
2023/10/17 01:08:08;;;;;;;0.47;0.47;;;8.20;90.40;;;;;;4817792;29;20079;-77
2023/10/17 01:10:36;;;;;;;0.50;0.47;;;8.10;90.40;;;;;;4833851;29;20038;-77
2023/10/17 01:13:03;;;;;;;0.88;0.43;;;8.10;90.40;;;;;;4803418;29;20082;-77
2023/10/17 01:15:33;;;;;;;0.38;0.30;;;8.00;90.30;;;;;;4833875;29;20042;-77
2023/10/17 01:18:04;;;;;;;0.30;0.30;;;8.10;90.40;;;;;;4817637;29;20031;-76
2023/10/17 01:20:30;;;;;;;0.28;0.28;;;8.10;90.40;;;;;;4818241;29;20051;-76
2023/10/17 01:22:56;;;;;;;0.20;0.20;;;8.00;90.40;;;;;;4817330;29;20042;-76
2023/10/17 01:25:26;;;;;;;1.10;0.30;;;8.10;90.40;;;;;;4817586;29;20046;-76
2023/10/17 01:27:52;;;;;;;0.63;0.40;;;8.00;90.40;;;;;;4817468;29;20081;-76
2023/10/17 01:30:19;;;;;;;0.38;0.32;;;8.00;90.40;;;;;;4816740;29;20516;-77
2023/10/17 01:32:47;;;;;;;0.50;0.50;;;8.10;90.40;;;;;;4816745;29;20449;-77
2023/10/17 01:35:13;;;;;;;1.33;0.50;;;8.00;90.40;;;;;;4817087;29;20070;-77
2023/10/17 01:37:40;;;;;;;0.40;0.40;;;8.00;90.40;;;;;;4817185;29;20058;-76
2023/10/17 01:40:09;;;;;;;0.68;0.40;;;8.10;90.40;;;;;;4816170;29;20038;-77
2023/10/17 01:42:35;;;;;;;0.35;0.30;;;8.00;90.40;;;;;;4802302;29;20050;-77
2023/10/17 01:45:01;;;;;;;0.75;0.38;;;8.10;90.40;;;;;;4833650;29;20051;-76
2023/10/17 01:47:26;;;;;;;0.43;0.40;;;8.10;90.40;;;;;;4817232;29;20582;-77
2023/10/17 01:49:52;;;;;;;0.40;0.40;;;8.10;90.40;;;;;;4803302;29;20040;-76
2023/10/17 01:52:18;;;;;;;0.30;0.30;;;8.10;90.40;;;;;;4817438;29;20034;-77
2023/10/17 01:54:48;;;;;;;1.65;0.40;;;8.00;90.30;;;;;;4815996;29;20101;-76
2023/10/17 01:57:14;;;;;;;0.93;0.50;;;8.10;90.40;;;;;;4833143;29;20081;-76
2023/10/17 01:59:39;;;;;;;0.22;0.22;;;8.10;90.40;;;;;;4833195;29;20038;-77
2023/10/17 02:02:05;;;;;;;0.40;0.40;;;8.10;90.40;;;;;;4813127;29;20059;-77
2023/10/17 02:04:34;;;;;;;0.40;0.40;;;8.10;90.30;;;;;;4813735;29;20053;-76
2023/10/17 02:07:00;;;;;;;0.50;0.40;;;8.20;90.40;;;;;;4812727;29;20443;-76
2023/10/17 02:09:45;;;;;;;0.63;0.40;;;8.10;90.30;;;;;;4829866;29;20187;-76
2023/10/17 02:12:12;;;;;;;0.70;0.40;;;8.20;90.40;;;;;;4812020;29;20057;-76
2023/10/17 02:14:39;;;;;;;0.30;0.30;;;8.20;90.40;;;;;;4797852;29;20065;-76
2023/10/17 02:17:06;;;;;;;0.40;0.40;;;8.20;90.40;;;;;;4812388;29;20046;-77
2023/10/17 02:19:32;;;;;;;0.65;0.60;;;8.10;90.30;;;;;;4798643;29;20061;-76
2023/10/17 02:21:58;;;;;;;0.70;0.32;;;8.10;90.30;;;;;;4828241;29;20080;-76
2023/10/17 02:24:25;;;;;;;0.52;0.47;;;8.20;90.30;;;;;;4828106;29;20527;-76
2023/10/17 02:27:00;;;;;;;0.98;0.60;;;8.20;90.30;;;;;;4828059;29;20042;-76
2023/10/17 02:29:29;;;;;;;0.40;0.25;;;8.20;90.30;;;;;;4827761;29;20038;-76
2023/10/17 02:31:55;;;;;;;0.40;0.38;;;8.20;90.30;;;;;;4812089;29;20486;-76
2023/10/17 02:34:22;;;;;;;0.60;0.40;;;8.20;90.30;;;;;;4797435;29;20039;-76
2023/10/17 02:36:49;;;;;;;0.65;0.50;;;8.20;90.30;;;;;;4796763;29;20027;-76
2023/10/17 02:39:15;;;;;;;0.43;0.30;;;8.20;90.30;;;;;;4826100;29;20111;-76
2023/10/17 02:41:46;;;;;;;0.90;0.63;;;8.20;90.30;;;;;;4811626;29;20042;-77
2023/10/17 02:44:19;;;;;;;0.65;0.60;;;8.20;90.30;;;;;;4812430;29;20046;-76
2023/10/17 02:46:45;;;;;;;0.40;0.40;;;8.20;90.30;;;;;;4796960;29;20419;-76
2023/10/17 02:49:13;;;;;;;1.33;0.60;;;8.20;90.30;;;;;;4810169;29;20107;-76
2023/10/17 02:51:42;;;;;;;0.40;0.40;;;8.30;90.30;;;;;;4810836;29;20039;-76
2023/10/17 02:54:13;;;;;;;0.45;0.35;;;8.20;90.30;;;;;;4825593;29;20050;-76
2023/10/17 02:56:46;;;;;;;0.40;0.40;;;8.20;90.30;;;;;;4825462;29;20393;-76
2023/10/17 02:59:12;;;;;;;1.05;0.40;;;8.20;90.30;;;;;;4809004;29;20042;-78
2023/10/17 03:01:40;;;;;;;0.38;0.38;;;8.20;90.30;;;;;;4826440;29;20053;-77
2023/10/17 03:04:08;;;;;;;1.15;0.68;;;8.20;90.30;;;;;;4826541;29;20031;-77
2023/10/17 03:06:37;;;;;;;0.60;0.57;;;8.20;90.30;;;;;;4826222;29;20034;-76
2023/10/17 03:11:51;;;;;;;0.40;0.40;;;8.20;90.30;;;;;;4826832;29;20477;-76
2023/10/17 03:14:22;;;;;;;0.95;0.65;;;8.20;90.30;;;;;;4796985;29;20045;-77
2023/10/17 03:16:53;;;;;;;0.50;0.40;;;8.20;90.30;;;;;;4827892;29;20046;-76
2023/10/17 03:19:25;;;;;;;0.65;0.55;;;8.20;90.30;;;;;;4811709;29;20046;-76
2023/10/17 03:21:53;;;;;;;1.02;0.50;;;8.20;90.30;;;;;;4827377;29;20050;-76
2023/10/17 03:24:24;;;;;;;0.55;0.50;;;8.20;90.30;;;;;;4797428;29;20826;-76
2023/10/17 03:27:07;;;;;;;0.77;0.52;;;8.30;90.30;;;;;;4827352;29;20038;-76
2023/10/17 03:29:35;;;;;;;0.40;0.40;;;8.20;90.30;;;;;;4811598;29;20111;-77
2023/10/17 03:32:04;;;;;;;0.43;0.43;;;8.20;90.30;;;;;;4827098;29;20054;-76
2023/10/17 03:34:37;;;;;;;0.52;0.40;;;8.20;90.30;;;;;;4826376;29;20056;-76
2023/10/17 03:37:26;;;;;;;0.45;0.45;;;8.20;90.30;;;;;;4789206;30;20446;-76
2023/10/17 03:39:52;;;;;;;0.30;0.30;;;8.10;90.30;;;;;;4775901;29;20059;-77
2023/10/17 03:42:53;;;;;;;0.40;0.30;;;8.20;90.40;;;;;;4773307;30;20043;-76
2023/10/17 03:45:26;;;;;;;0.80;0.40;;;8.20;90.40;;;;;;4775353;30;20046;-77
2023/10/17 03:47:53;;;;;;;0.38;0.38;;;8.10;90.40;;;;;;4779744;29;20067;-76
2023/10/17 03:53:07;;;;;;;0.98;0.52;;;8.10;90.50;;;;;;4792504;29;20491;-76
2023/10/17 03:55:36;;;;;;;0.40;0.40;;;8.10;90.50;;;;;;4806426;29;20043;-76
2023/10/17 03:58:08;;;;;;;0.80;0.52;;;8.10;90.50;;;;;;4776570;29;20043;-76
2023/10/17 04:00:41;;;;;;;0.35;0.35;;;8.10;90.50;;;;;;4806715;29;20066;-77
2023/10/17 04:03:18;;;;;;;0.32;0.32;;;8.10;90.50;;;;;;4807143;29;20050;-77
2023/10/17 04:05:45;;;;;;;0.30;0.30;;;8.10;90.50;;;;;;4807945;29;20140;-76
2023/10/17 04:08:10;;;;;;;0.77;0.40;;;8.10;90.50;;;;;;4818560;29;20117;-76
2023/10/17 04:10:47;;;;;;;0.60;0.60;;;8.10;90.50;;;;;;4828509;29;20058;-77
2023/10/17 04:13:18;;;;;;;0.50;0.40;;;8.00;90.50;;;;;;4811466;29;20038;-77
2023/10/17 04:15:44;;;;;;;1.00;0.45;;;8.10;90.50;;;;;;4796319;29;20049;-76
2023/10/17 04:18:11;;;;;;;0.60;0.60;;;8.10;90.50;;;;;;4810369;29;20050;-76
2023/10/17 04:20:38;;;;;;;0.60;0.43;;;8.10;90.50;;;;;;4809879;29;20034;-77
2023/10/17 04:23:05;;;;;;;1.02;0.50;;;8.10;90.50;;;;;;4825957;29;20047;-77
2023/10/17 04:25:34;;;;;;;0.50;0.50;;;8.00;90.50;;;;;;4809674;29;20564;-76
2023/10/17 04:28:01;;;;;;;0.75;0.73;;;8.00;90.50;;;;;;4796179;29;20037;-76
2023/10/17 04:30:35;;;;;;;0.98;0.70;;;8.00;90.50;;;;;;4826404;29;20129;-76
2023/10/17 04:33:19;;;;;;;0.70;0.70;;;8.00;90.50;;;;;;4796026;29;20099;-76
2023/10/17 04:35:46;;;;;;;0.52;0.50;;;8.00;90.50;;;;;;4811711;29;20125;-76
2023/10/17 04:38:19;;;;;;;1.38;0.60;;;8.00;90.80;;;;;;4810427;29;20517;-77
2023/10/17 04:40:58;;;;;;;0.45;0.40;;;8.00;90.50;;;;;;4781127;29;20045;-76
2023/10/17 04:46:08;;;;;;;0.50;0.50;;;8.00;90.50;;;;;;4798290;29;20109;-77
2023/10/17 04:48:36;;;;;;;0.50;0.50;;;8.00;90.50;;;;;;4824344;29;20050;-76
2023/10/17 04:51:24;;;;;;;0.73;0.40;;;7.90;90.40;;;;;;4787957;30;20092;-76
2023/10/17 04:53:48;;;;;;;0.75;0.50;;;8.00;90.40;;;;;;4775411;30;20040;-76
2023/10/17 04:56:17;;;;;;;0.40;0.40;;;8.00;90.40;;;;;;4772828;29;20047;-77
2023/10/17 05:01:36;;;;;;;0.50;0.50;;;8.00;90.40;;;;;;4793026;29;20051;-77
2023/10/17 05:04:13;;;;;;;0.52;0.50;;;8.00;90.40;;;;;;4792925;29;20055;-76
2023/10/17 06:16:53;;;;;;;1.65;1.10;;;7.90;90.50;;;;;;4796015;29;20518;-76
2023/10/17 06:19:21;;;;;;;2.13;1.35;;;7.90;90.50;;;;;;4807383;29;20065;-76
2023/10/17 06:24:45;;;;;;;1.95;1.25;;;7.90;90.60;;;;;;4785015;30;20524;-79
2023/10/17 06:35:25;;;;;;;2.65;1.42;;;7.90;90.50;;;;;;4773638;30;20134;-78
2023/10/17 06:37:51;;;;;;;2.85;1.48;;;7.90;90.50;;;;;;4752083;30;20044;-78
2023/10/17 06:40:17;;;;;;;2.10;1.33;;;7.90;90.50;;;;;;4738424;30;20048;-78
2023/10/17 06:42:58;;;;;;;2.40;1.30;;;7.80;90.50;;;;;;4770853;30;20538;-79
2023/10/17 06:45:24;;;;;;;1.90;1.13;;;7.90;90.50;;;;;;4791470;30;20047;-78
2023/10/17 06:47:50;;;;;;;2.30;1.30;;;7.90;90.50;;;;;;4780154;29;20134;-77
2023/10/17 06:50:17;;;;;;;2.35;1.10;;;7.90;90.50;;;;;;4756152;30;20120;-78
2023/10/17 06:52:54;;;;;;;1.85;1.40;;;7.90;90.50;;;;;;4742283;30;20101;-78
2023/10/17 06:55:22;;;;;;;1.73;1.05;;;8.00;90.50;;;;;;4763684;29;20042;-78
2023/10/17 06:57:50;;;;;;;1.92;1.25;;;7.90;90.50;;;;;;4799040;29;20137;-77
2023/10/17 07:00:51;;;;;;;1.55;1.15;;;7.90;90.50;;;;;;4782067;29;20068;-79
2023/10/17 07:03:07;;;;;;;1.73;1.10;;;7.90;90.50;;;;;;4827756;29;20410;-78
2023/10/17 07:05:36;;;;;;;1.60;1.10;;;7.90;90.50;;;;;;4833055;29;20037;-78
2023/10/17 07:08:13;;;;;;;2.47;1.20;;;7.90;90.50;;;;;;4781299;30;20723;-78
2023/10/17 07:10:58;;;;;;;1.55;1.08;;;7.90;90.50;;;;;;4781197;30;20651;-78
2023/10/17 07:14:36;;;;;;;1.30;0.80;;;7.90;90.50;;;;;;4796005;30;20063;-78
2023/10/17 07:16:48;;;;;;;1.17;0.85;;;8.00;90.60;;;;;;4798462;29;20102;-78
2023/10/17 07:22:06;;;;;;;0.98;0.85;;;8.00;90.50;;;;;;4776901;29;20092;-78
2023/10/17 07:24:36;;;;;;;2.50;1.20;;;8.00;90.40;;;;;;4818548;29;20043;-77
2023/10/17 07:27:11;;;;;;;1.10;0.85;;;8.10;90.40;;;;;;4791699;30;20039;-77
2023/10/17 07:29:37;;;;;;;1.05;0.82;;;8.20;90.40;;;;;;4759004;30;20043;-76
2023/10/17 07:32:25;;;;;;;1.15;0.90;;;8.20;90.40;;;;;;4757025;30;20039;-78
2023/10/17 07:34:52;;;;;;;1.67;0.80;;;8.20;90.30;;;;;;4793257;30;20048;-78
2023/10/17 07:37:23;;;;;;;1.92;0.90;;;8.30;90.30;;;;;;4777692;30;20072;-79
2023/10/17 07:42:45;;;;;;;1.33;1.00;;;8.30;90.60;;;;;;4761652;30;20617;-79
2023/10/17 07:45:15;;;;;;;2.42;1.02;;;8.40;90.30;;;;;;4747813;30;20539;-78
2023/10/17 07:47:42;;;;;;;0.75;0.70;;;8.40;90.20;;;;;;4738457;30;20483;-77
2023/10/17 07:50:12;;;;;;;1.92;1.13;;;8.40;90.20;;;;;;4759541;30;20145;-78
2023/10/17 07:52:43;;;;;;;2.75;1.20;;;8.50;90.20;;;;;;4768186;30;20092;-77
2023/10/17 07:57:52;;;;;;;1.83;1.00;;;8.50;90.10;;;;;;4779043;29;20058;-77
2023/10/17 08:00:26;;;;;;;1.10;1.00;;;8.60;90.20;;;;;;4777175;29;20553;-77
2023/10/17 08:03:07;;;;;;;3.00;1.33;;;8.60;90.10;;;;;;4823508;29;20058;-78
2023/10/17 08:05:44;;;;;;;1.17;0.82;;;8.70;90.10;;;;;;4798066;29;20042;-79
2023/10/17 08:08:14;;;;;;;1.70;1.20;;;8.60;90.10;;;;;;4815785;29;20057;-80
2023/10/17 08:10:45;;;;;;;1.55;1.08;;;8.60;90.10;;;;;;4776236;30;20510;-79
2023/10/17 08:13:12;;;;;;;2.03;1.20;;;8.50;90.10;;;;;;4755867;29;20038;-78
2023/10/17 08:15:46;;;;;;;1.40;1.10;;;8.60;90.10;;;;;;4806022;29;20577;-79
2023/10/17 08:18:14;;;;;;;1.88;0.93;;;8.60;90.10;;;;;;4811679;29;20047;-79
2023/10/17 08:23:27;;;;;;;2.53;0.90;;;8.70;90.10;;;;;;4787440;29;20050;-79
2023/10/17 08:26:00;;;;;;;1.35;0.90;;;8.80;90.10;;;;;;4812360;29;20075;-78
2023/10/17 08:31:24;;;;;;;2.30;1.20;;;8.90;90.10;;;;;;4793426;29;20047;-77
2023/10/17 08:34:24;;;;;;;1.75;1.00;;;8.90;90.10;;;;;;4804730;29;20112;-77
2023/10/17 08:36:47;;;;;;;2.75;1.30;;;8.90;90.00;;;;;;4790688;29;20500;-77
2023/10/17 08:41:57;;;;;;;2.03;1.20;;;9.00;90.00;;;;;;4794552;29;20058;-76
2023/10/17 08:44:31;;;;;;;1.70;1.10;;;9.00;90.00;;;;;;4822868;29;20119;-78
2023/10/17 08:46:58;;;;;;;1.60;1.20;;;9.00;90.00;;;;;;4777358;29;20046;-77
2023/10/17 08:49:27;;;;;;;1.98;1.10;;;9.10;90.00;;;;;;4822357;29;20046;-78
2023/10/17 08:51:56;;;;;;;2.10;1.33;;;9.10;90.00;;;;;;4792376;29;20046;-78
2023/10/17 08:54:24;;;;;;;2.00;1.20;;;9.10;90.00;;;;;;4806780;29;20123;-78
2023/10/17 08:56:51;;;;;;;2.72;1.30;;;9.10;90.00;;;;;;4806591;29;20187;-78
2023/10/17 08:59:34;;;;;;;2.67;1.50;;;9.20;90.00;;;;;;4788521;29;20046;-79
2023/10/17 09:02:02;;;;;;;2.55;1.20;;;9.20;89.90;;;;;;4802734;29;20445;-78
2023/10/17 09:04:33;;;;;;;2.10;1.38;;;9.20;89.90;;;;;;4802607;29;20055;-76
2023/10/17 09:06:59;;;;;;;2.15;1.27;;;9.30;89.90;;;;;;4802248;29;20502;-76
2023/10/17 09:09:29;;;;;;;2.10;1.30;;;9.30;89.90;;;;;;4786767;29;20248;-76
2023/10/17 09:12:01;;;;;;;3.22;1.65;;;9.50;89.90;;;;;;4769922;30;20047;-75
2023/10/17 09:14:35;;;;;;;1.70;1.30;;;9.30;90.10;;;;;;4769375;30;20139;-76
2023/10/17 09:17:10;;;;;;;1.88;1.20;;;9.40;89.70;;;;;;4755668;30;20073;-76
2023/10/17 09:19:40;;;;;;;2.42;1.42;;;9.40;89.60;;;;;;4769103;30;20113;-76
2023/10/17 09:22:10;;;;;;;2.53;1.30;;;9.50;89.50;;;;;;4754690;30;20051;-75
2023/10/17 09:24:36;;;;;;;1.37;1.17;;;9.60;89.50;;;;;;4754855;30;20051;-76
2023/10/17 09:27:12;;;;;;;2.28;1.50;;;9.60;89.40;;;;;;4753994;30;20056;-75
2023/10/17 09:29:45;;;;;;;2.17;1.40;;;9.70;89.40;;;;;;4773321;30;20051;-76
2023/10/17 09:32:11;;;;;;;1.88;1.33;;;9.80;89.40;;;;;;4772447;30;20051;-76
2023/10/17 09:34:40;;;;;;;1.92;1.23;;;9.70;89.20;;;;;;4772056;30;20103;-77
2023/10/17 09:37:12;;;;;;;1.48;1.20;;;9.80;89.10;;;;;;4772562;30;20039;-77
2023/10/17 09:39:46;;;;;;;1.67;1.23;;;9.80;89.10;;;;;;4773791;30;20043;-77
2023/10/17 09:42:11;;;;;;;3.53;1.45;;;9.90;89.20;;;;;;4780860;29;20104;-76
2023/10/17 09:44:38;;;;;;;2.47;1.20;;;10.00;89.10;;;;;;4778853;29;20501;-76
2023/10/17 09:47:08;;;;;;;2.58;1.63;;;10.00;89.10;;;;;;4825896;29;20134;-77
2023/10/17 09:49:43;;;;;;;2.00;1.30;;;10.00;89.00;;;;;;4779601;29;20125;-77
2023/10/17 09:52:10;;;;;;;1.33;0.93;;;10.10;88.90;;;;;;4793735;29;20501;-76
2023/10/17 09:54:41;;;;;;;1.40;1.08;;;10.10;88.80;;;;;;4825051;29;20066;-76
2023/10/17 09:57:14;;;;;;;2.72;1.33;;;10.20;88.80;;;;;;4825254;29;20155;-76
2023/10/17 09:59:50;;;;;;;1.35;1.05;;;10.30;88.80;;;;;;4823933;29;20054;-77
2023/10/17 10:02:20;;;;;;;1.27;1.00;;;10.20;88.70;;;;;;4825435;29;20046;-77
2023/10/17 10:04:46;;;;;;;1.52;1.00;;;10.30;88.80;;;;;;4809575;29;20053;-76
2023/10/17 10:07:22;;;;;;;1.08;0.90;;;10.30;88.70;;;;;;4808819;29;20051;-76
2023/10/17 10:09:48;;;;;;;1.75;1.00;;;10.30;88.60;;;;;;4808382;29;20188;-76
2023/10/17 10:12:15;;;;;;;2.03;1.13;;;10.30;88.60;;;;;;4808784;29;20486;-76
2023/10/17 10:14:42;;;;;;;1.98;1.25;;;10.40;88.70;;;;;;4808852;29;20054;-77
2023/10/17 10:17:14;;;;;;;2.08;1.20;;;10.40;88.60;;;;;;4808585;29;20107;-77
2023/10/17 10:20:00;;;;;;;1.33;0.98;;;10.40;88.40;;;;;;4779550;29;20046;-77
2023/10/17 10:23:05;;;;;;;1.48;0.98;;;10.50;88.40;;;;;;4780388;29;20055;-76
2023/10/17 10:26:07;;;;;;;1.15;0.80;;;10.50;88.40;;;;;;4807298;29;20104;-76
2023/10/17 10:28:35;;;;;;;1.27;0.77;;;10.50;88.30;;;;;;4823023;29;20042;-76
2023/10/17 10:31:33;;;;;;;1.33;1.00;;;10.60;88.20;;;;;;4808032;29;20062;-76
2023/10/17 10:33:59;;;;;;;1.58;1.00;;;10.60;88.20;;;;;;4805687;29;20486;-76
2023/10/17 10:36:26;;;;;;;1.70;1.20;;;10.50;88.10;;;;;;4753031;30;21062;-76
2023/10/17 10:38:54;;;;;;;2.55;1.05;;;10.60;88.10;;;;;;4768328;30;20515;-77
2023/10/17 10:41:22;;;;;;;1.48;1.00;;;10.70;88.20;;;;;;4753478;30;20056;-76
2023/10/17 10:43:48;;;;;;;1.45;0.90;;;10.80;88.20;;;;;;4766732;30;20522;-76
2023/10/17 10:46:15;;;;;;;1.58;1.17;;;10.60;88.00;;;;;;4768585;30;20051;-76
2023/10/17 10:48:53;;;;;;;0.88;0.80;;;10.70;88.00;;;;;;4768353;30;20143;-76
2023/10/17 10:51:21;;;;;;;1.50;1.02;;;10.70;88.00;;;;;;4766830;30;20044;-76
2023/10/17 10:53:56;;;;;;;1.48;1.00;;;10.70;88.00;;;;;;4767250;30;20059;-77
2023/10/17 10:56:24;;;;;;;1.65;1.05;;;10.70;88.10;;;;;;4768181;30;20075;-77
2023/10/17 10:58:53;;;;;;;2.55;1.15;;;10.60;88.10;;;;;;4766792;30;20078;-77
2023/10/17 11:01:20;;;;;;;1.38;1.10;;;10.70;88.10;;;;;;4748491;30;20052;-78
2023/10/17 11:03:47;;;;;;;1.25;1.00;;;10.70;88.00;;;;;;4735574;30;20056;-77
2023/10/17 11:06:14;;;;;;;1.05;0.85;;;10.70;87.90;;;;;;4750928;30;20052;-76
2023/10/17 11:08:43;;;;;;;1.25;0.90;;;10.90;87.80;;;;;;4786169;29;20055;-76
2023/10/17 11:11:14;;;;;;;1.23;1.00;;;10.90;87.70;;;;;;4785930;29;20077;-76
2023/10/17 11:13:44;;;;;;;;;;;10.90;87.50;;;;;;4786638;30;20047;-77
2023/10/17 11:16:10;;;;;;;1.45;0.80;;;11.00;87.50;;;;;;4768807;30;20293;-77
2023/10/17 11:18:38;;;;;;;1.90;1.10;;;11.00;87.40;;;;;;4786020;29;20450;-76
2023/10/17 11:21:09;;;;;;;1.17;0.77;;;11.10;87.30;;;;;;4755871;30;20130;-76
2023/10/17 11:23:39;;;;;;;0.90;0.70;;;11.10;87.20;;;;;;4771110;30;20515;-76
2023/10/17 11:26:17;;;;;;;0.70;0.68;;;11.10;87.20;;;;;;4770590;30;20126;-77
2023/10/17 11:28:46;;;;;;;1.90;1.00;;;11.10;87.20;;;;;;4771591;30;20086;-78
2023/10/17 11:31:21;;;;;;;1.05;0.75;;;11.10;87.10;;;;;;4771866;29;20043;-77
2023/10/17 11:33:58;;;;;;;0.75;0.70;;;11.20;87.10;;;;;;4794252;29;20065;-77
2023/10/17 11:36:25;;;;;;;1.02;0.75;;;11.30;87.00;;;;;;4824201;29;20129;-77
2023/10/17 11:38:57;;;;;;;1.40;0.90;;;11.30;86.80;;;;;;4792083;29;20085;-77
2023/10/17 11:41:39;;;;;;;0.93;0.80;;;11.40;86.70;;;;;;4822342;29;20050;-77
2023/10/17 11:44:06;;;;;;;0.73;0.63;;;11.40;86.50;;;;;;4780710;29;20050;-79
2023/10/17 11:46:33;;;;;;;1.30;0.80;;;11.50;86.40;;;;;;4777351;29;20089;-76
2023/10/17 11:49:21;;;;;;;1.20;0.82;;;11.50;86.30;;;;;;4807745;29;20050;-78
2023/10/17 11:51:49;;;;;;;1.20;0.80;;;11.60;86.30;;;;;;4807410;29;20046;-77
2023/10/17 11:54:15;;;;;;;1.40;0.98;;;11.70;86.30;;;;;;4791658;29;20108;-77
2023/10/17 11:56:41;;;;;;;0.85;0.65;;;11.60;86.10;;;;;;4808245;29;20043;-77
2023/10/17 12:02:49;;;;;;;1.02;0.70;;;11.70;86.00;;;;;;4801603;29;20092;-78
2023/10/17 12:08:58;;;;;;;0.98;0.60;;;11.80;85.90;;;;;;4766616;30;20128;-76
2023/10/17 12:11:24;;;;;;;0.75;0.60;;;11.90;85.70;;;;;;4766297;30;20043;-76
2023/10/17 12:14:29;;;;;;;1.25;0.70;;;11.90;85.60;;;;;;4751855;30;20047;-77
2023/10/17 12:17:00;;;;;;;0.55;0.55;;;12.00;85.40;;;;;;4696257;30;20054;-76
2023/10/17 12:19:27;;;;;;;0.60;0.60;;;12.10;85.20;;;;;;4665576;30;20057;-76
2023/10/17 12:21:54;;;;;;;1.05;0.70;;;12.10;85.10;;;;;;4682517;30;20076;-77
2023/10/17 12:24:58;;;;;;;1.15;0.95;;;12.20;85.10;;;;;;4678987;30;20058;-78
2023/10/17 12:27:26;;;;;;;0.90;0.70;;;12.20;84.90;;;;;;4662868;30;20058;-76
2023/10/17 12:29:58;;;;;;;0.60;0.60;;;12.30;84.80;;;;;;4650608;30;20054;-76
2023/10/17 12:32:23;;;;;;;0.55;0.50;;;12.30;84.60;;;;;;4663843;30;20064;-76
2023/10/17 12:34:51;;;;;;;0.68;0.63;;;12.40;84.70;;;;;;4662513;30;20046;-77
2023/10/17 12:37:17;;;;;;;0.80;0.60;;;12.40;84.60;;;;;;4665001;30;20067;-77
2023/10/17 12:39:49;;;;;;;0.60;0.60;;;12.40;84.40;;;;;;4678614;30;20129;-78
2023/10/17 12:42:15;;;;;;;0.68;0.60;;;12.50;84.50;;;;;;4651024;30;20046;-79
2023/10/17 12:48:19;;;;;;;0.50;0.50;;;12.50;84.50;;;;;;4703293;30;20506;-77
2023/10/17 12:50:45;;;;;;;0.52;0.52;;;12.50;84.40;;;;;;4693071;30;20065;-77
2023/10/17 12:53:12;;;;;;;0.98;0.60;;;12.50;84.40;;;;;;4724468;30;20080;-76
2023/10/17 12:55:41;;;;;;;0.88;0.50;;;12.60;84.40;;;;;;4730664;30;20049;-78
2023/10/17 12:58:10;;;;;;;0.47;0.40;;;12.60;84.30;;;;;;4720988;30;20044;-76
2023/10/17 13:00:41;;;;;;;0.50;0.50;;;12.60;84.10;;;;;;4731941;30;20049;-76
2023/10/17 13:03:11;;;;;;;0.63;0.40;;;12.50;84.10;;;;;;4751859;30;20060;-76
2023/10/17 13:05:37;;;;;;;0.80;0.60;;;12.50;84.10;;;;;;4718060;30;20054;-77
2023/10/17 13:08:19;;;;;;;1.15;0.88;;;12.50;84.10;;;;;;4718528;30;20127;-76
2023/10/17 13:11:02;;;;;;;0.75;0.68;;;12.60;84.10;;;;;;4734760;30;20056;-78
2023/10/17 13:13:31;;;;;;;0.50;0.50;;;12.60;84.10;;;;;;4682640;30;20163;-77
2023/10/17 13:15:59;;;;;;;0.65;0.55;;;12.60;84.00;;;;;;4694570;30;20103;-78
2023/10/17 13:18:40;;;;;;;0.55;0.45;;;12.50;83.90;;;;;;4695569;30;20148;-76
2023/10/17 13:21:12;;;;;;;0.55;0.50;;;12.60;83.90;;;;;;4660233;30;20509;-77
2023/10/17 13:23:39;;;;;;;0.50;0.50;;;12.60;83.80;;;;;;4681456;30;20053;-75
2023/10/17 13:26:11;;;;;;;0.85;0.60;;;12.50;83.70;;;;;;4667499;30;20461;-75
2023/10/17 13:28:38;;;;;;;0.50;0.50;;;12.60;83.70;;;;;;4665046;30;20062;-76
2023/10/17 13:31:15;;;;;;;0.50;0.50;;;12.60;83.60;;;;;;4694022;30;20061;-76
2023/10/17 13:33:43;;;;;;;0.70;0.50;;;12.60;83.60;;;;;;4681811;30;20045;-76
2023/10/17 13:36:10;;;;;;;1.60;0.70;;;12.60;83.70;;;;;;4681984;30;20164;-76
2023/10/17 13:38:38;;;;;;;0.68;0.68;;;12.60;83.70;;;;;;4690617;30;20205;-76
2023/10/17 13:41:09;;;;;;;0.50;0.50;;;12.60;83.70;;;;;;4684497;30;20056;-77
2023/10/17 13:43:36;;;;;;;;;;;12.60;83.60;;;;;;4699864;30;20049;-78
2023/10/17 13:46:13;;;;;;;0.32;0.32;;;12.60;83.70;;;;;;4707553;30;20605;-77
2023/10/17 13:48:50;;;;;;;0.40;0.40;;;12.70;83.60;;;;;;4713099;30;20051;-76
2023/10/17 13:51:17;;;;;;;0.60;0.60;;;12.60;84.20;;;;;;4709194;30;20468;-76
2023/10/17 13:53:50;;;;;;;0.47;0.47;;;12.60;83.60;;;;;;4739162;30;20051;-77
2023/10/17 13:56:18;;;;;;;0.40;0.40;;;12.60;83.70;;;;;;4770109;30;20075;-76
2023/10/17 13:58:51;;;;;;;0.65;0.60;;;12.50;83.70;;;;;;4771133;30;20039;-76
2023/10/17 14:01:32;;;;;;;1.08;0.50;;;12.50;83.70;;;;;;4771617;30;20047;-76
2023/10/17 14:04:02;;;;;;;0.40;0.40;;;12.50;83.70;;;;;;4758161;30;20052;-76
2023/10/17 14:06:33;;;;;;;0.63;0.50;;;12.40;84.20;;;;;;4756550;30;20127;-77
2023/10/17 14:09:00;;;;;;;0.63;0.55;;;12.40;83.70;;;;;;4736174;30;20040;-77
2023/10/17 14:11:34;;;;;;;0.70;0.60;;;12.40;83.70;;;;;;4736783;30;20052;-77
2023/10/17 14:14:05;;;;;;;0.38;0.38;;;12.40;83.80;;;;;;4736862;30;20048;-76
2023/10/17 14:16:31;;;;;;;0.47;0.47;;;12.30;83.70;;;;;;4736849;30;20040;-77
2023/10/17 14:19:12;;;;;;;0.95;0.60;;;12.40;83.80;;;;;;4744905;30;20047;-76
2023/10/17 14:21:45;;;;;;;0.50;0.40;;;12.30;83.90;;;;;;4773619;30;20244;-76
2023/10/17 14:24:14;;;;;;;0.40;0.40;;;12.30;83.90;;;;;;4786543;30;20495;-76
2023/10/17 14:26:40;;;;;;;0.77;0.63;;;12.20;84.00;;;;;;4785841;29;20134;-78
2023/10/17 14:29:13;;;;;;;0.60;0.40;;;12.10;84.10;;;;;;4720649;30;20135;-77
2023/10/17 14:31:38;;;;;;;0.88;0.63;;;12.10;84.00;;;;;;4733060;30;20055;-76
2023/10/17 14:34:09;;;;;;;0.75;0.50;;;12.10;83.90;;;;;;4689066;30;20048;-76
2023/10/17 14:36:38;;;;;;;0.50;0.50;;;12.10;83.90;;;;;;4725585;30;20044;-78
2023/10/17 14:39:12;;;;;;;0.73;0.70;;;12.10;83.90;;;;;;4690171;30;20065;-77
2023/10/17 14:41:40;;;;;;;0.60;0.50;;;12.20;84.00;;;;;;4698328;30;20053;-76
2023/10/17 14:44:11;;;;;;;0.50;0.50;;;12.10;83.90;;;;;;4700923;30;20049;-75
2023/10/17 14:46:40;;;;;;;0.50;0.50;;;12.20;83.80;;;;;;4681735;30;20064;-80
2023/10/17 14:49:21;;;;;;;0.50;0.50;;;12.20;83.80;;;;;;4587673;31;20417;-80
2023/10/17 14:51:47;;;;;;;0.35;0.32;;;12.10;83.80;;;;;;4567530;31;20067;-78
2023/10/17 14:54:15;;;;;;;0.50;0.50;;;12.10;83.80;;;;;;4580140;31;20041;-77
2023/10/17 14:56:42;;;;;;;0.57;0.57;;;12.10;83.80;;;;;;4566029;31;20120;-78
2023/10/17 14:59:08;;;;;;;0.50;0.50;;;12.10;83.80;;;;;;4563929;31;20045;-76
2023/10/17 15:01:36;;;;;;;0.50;0.50;;;12.10;83.80;;;;;;4553282;31;20049;-76
2023/10/17 15:04:33;;;;;;;0.57;0.57;;;12.10;84.10;;;;;;4624207;30;20135;-79
2023/10/17 15:07:14;;;;;;;0.73;0.55;;;12.10;83.70;;;;;;4622450;31;20064;-80
2023/10/17 15:09:49;;;;;;;0.40;0.30;;;12.00;83.70;;;;;;4614879;31;20052;-77
2023/10/17 15:12:36;;;;;;;0.50;0.40;;;12.00;83.70;;;;;;4593278;31;20060;-78
2023/10/17 15:15:02;;;;;;;0.40;0.30;;;12.00;83.70;;;;;;4588932;31;20498;-76
2023/10/17 15:18:09;;;;;;;0.50;0.50;;;11.90;83.60;;;;;;4565145;31;20060;-79